createdAt,value
2018-07-31T00:01:50.714Z,20.50
2018-07-31T00:04:19.166Z,20.60
2018-07-31T00:06:47.624Z,20.50
2018-07-31T00:09:16.252Z,20.60
2018-07-31T00:11:44.831Z,20.20
2018-07-31T00:14:13.404Z,20.30
2018-07-31T00:16:41.843Z,20.30
2018-07-31T00:19:10.397Z,20.30
2018-07-31T00:21:38.963Z,20.30
2018-07-31T00:26:36.433Z,20.10
2018-07-31T00:29:05.842Z,19.90
2018-07-31T00:31:34.319Z,20.00
2018-07-31T00:34:05.253Z,20.10
2018-07-31T00:36:33.908Z,18.90
2018-07-31T00:39:02.527Z,20.20
2018-07-31T00:41:31.983Z,20.00
2018-07-31T00:46:28.729Z,20.00
2018-07-31T00:48:57.184Z,19.90
2018-07-31T00:51:25.681Z,20.00
2018-07-31T00:53:54.357Z,20.10
2018-07-31T00:56:22.793Z,20.00
2018-07-31T01:06:21.086Z,20.00
2018-07-31T01:08:50.211Z,19.90
2018-07-31T01:11:18.693Z,19.90
2018-07-31T01:16:15.473Z,19.90
2018-07-31T01:18:43.945Z,19.80
2018-07-31T01:21:12.439Z,19.50
2018-07-31T01:23:40.852Z,19.80
2018-07-31T01:31:05.682Z,19.70
2018-07-31T01:33:34.130Z,19.70
2018-07-31T01:36:02.751Z,19.50
2018-07-31T01:38:31.193Z,19.50
2018-07-31T01:40:59.940Z,19.30
2018-07-31T01:43:28.389Z,19.50
2018-07-31T01:45:56.995Z,19.40
2018-07-31T01:48:25.433Z,19.40
2018-07-31T01:50:53.998Z,19.50
2018-07-31T01:53:22.519Z,19.40
2018-07-31T01:55:51.052Z,19.30
2018-07-31T01:58:19.495Z,19.20
2018-07-31T02:00:48.106Z,19.10
2018-07-31T02:03:16.563Z,18.60
2018-07-31T02:05:45.035Z,19.00
2018-07-31T02:08:13.479Z,19.00
2018-07-31T02:10:42.604Z,19.10
2018-07-31T02:13:11.446Z,19.00
2018-07-31T02:15:39.928Z,19.00
2018-07-31T02:18:08.481Z,19.10
2018-07-31T02:20:36.898Z,19.10
2018-07-31T02:23:05.356Z,19.10
2018-07-31T02:25:33.826Z,19.10
2018-07-31T02:28:02.342Z,19.10
2018-07-31T02:30:30.802Z,19.00
2018-07-31T02:35:27.414Z,18.70
2018-07-31T02:37:55.926Z,18.70
2018-07-31T02:40:24.447Z,18.70
2018-07-31T02:42:53.092Z,18.80
2018-07-31T02:45:22.264Z,18.60
2018-07-31T02:47:50.838Z,18.90
2018-07-31T02:50:19.325Z,18.80
2018-07-31T02:52:48.130Z,18.90
2018-07-31T02:57:45.697Z,18.70
2018-07-31T03:00:14.540Z,18.80
2018-07-31T03:05:12.193Z,18.40
2018-07-31T03:07:40.986Z,18.20
2018-07-31T03:10:10.801Z,18.10
2018-07-31T03:12:39.257Z,18.20
2018-07-31T03:15:09.398Z,18.20
2018-07-31T03:17:38.102Z,18.20
2018-07-31T03:20:07.276Z,18.50
2018-07-31T03:22:36.117Z,18.00
2018-07-31T03:25:05.285Z,17.90
2018-07-31T03:27:33.762Z,18.10
2018-07-31T03:30:03.014Z,18.20
2018-07-31T03:32:31.486Z,18.20
2018-07-31T03:37:28.888Z,18.20
2018-07-31T03:39:57.493Z,18.30
2018-07-31T03:42:26.142Z,18.40
2018-07-31T03:44:55.038Z,18.40
2018-07-31T03:47:24.308Z,18.30
2018-07-31T03:49:52.983Z,18.30
2018-07-31T03:52:21.505Z,18.10
2018-07-31T03:54:51.108Z,18.10
2018-07-31T03:57:20.713Z,18.10
2018-07-31T03:59:51.572Z,18.30
2018-07-31T04:02:21.538Z,17.90
2018-07-31T04:04:50.534Z,17.90
2018-07-31T04:09:50.600Z,17.70
2018-07-31T04:17:22.672Z,17.90
2018-07-31T04:19:51.193Z,17.90
2018-07-31T04:22:19.778Z,18.00
2018-07-31T04:24:48.388Z,18.10
2018-07-31T04:29:45.379Z,18.30
2018-07-31T04:32:13.952Z,18.40
2018-07-31T04:34:51.509Z,18.40
2018-07-31T04:42:26.666Z,18.80
2018-07-31T04:44:55.126Z,18.90
2018-07-31T04:47:23.683Z,18.90
2018-07-31T04:49:52.370Z,19.00
2018-07-31T04:57:19.069Z,19.10
2018-07-31T04:59:47.959Z,18.80
2018-07-31T05:02:16.582Z,19.00
2018-07-31T05:04:45.114Z,19.10
2018-07-31T05:07:13.709Z,19.10
2018-07-31T05:09:42.213Z,19.10
2018-07-31T05:12:10.710Z,19.10
2018-07-31T05:14:39.137Z,19.10
2018-07-31T05:17:07.637Z,19.20
2018-07-31T05:19:36.077Z,19.60
2018-07-31T05:22:04.644Z,19.50
2018-07-31T05:24:33.145Z,19.50
2018-07-31T05:27:01.655Z,19.70
2018-07-31T05:34:26.524Z,20.10
2018-07-31T05:39:23.749Z,20.30
2018-07-31T05:41:52.310Z,20.50
2018-07-31T05:44:20.967Z,20.40
2018-07-31T05:46:49.457Z,20.50
2018-07-31T05:49:17.898Z,20.70
2018-07-31T05:54:14.526Z,20.90
2018-07-31T05:56:42.973Z,21.00
2018-07-31T05:59:11.564Z,21.10
2018-07-31T06:01:40.073Z,21.40
2018-07-31T06:04:08.575Z,21.50
2018-07-31T06:06:37.067Z,21.50
2018-07-31T06:09:08.105Z,21.70
2018-07-31T06:11:37.016Z,21.80
2018-07-31T06:14:06.216Z,21.90
2018-07-31T06:16:34.707Z,22.10
2018-07-31T06:19:03.131Z,22.30
2018-07-31T06:21:31.610Z,22.70
2018-07-31T06:24:00.103Z,23.00
2018-07-31T06:26:28.684Z,23.20
2018-07-31T06:28:57.110Z,23.40
2018-07-31T06:31:25.772Z,23.50
2018-07-31T06:33:54.630Z,23.70
2018-07-31T06:36:23.210Z,24.10
2018-07-31T06:38:51.654Z,24.10
2018-07-31T06:41:20.375Z,24.50
2018-07-31T06:43:48.911Z,24.60
2018-07-31T06:46:17.631Z,24.90
2018-07-31T06:48:46.201Z,24.80
2018-07-31T06:51:14.941Z,25.60
2018-07-31T06:53:43.465Z,25.80
2018-07-31T06:56:11.910Z,26.00
2018-07-31T07:01:08.525Z,25.90
2018-07-31T07:03:37.051Z,26.20
2018-07-31T07:11:01.897Z,26.90
2018-07-31T07:13:30.367Z,27.00
2018-07-31T07:15:59.484Z,27.20
2018-07-31T07:20:56.224Z,27.30
2018-07-31T07:23:24.817Z,27.00
2018-07-31T07:25:53.353Z,26.90
2018-07-31T07:28:21.864Z,26.70
2018-07-31T07:30:50.314Z,26.70
2018-07-31T07:33:18.841Z,26.50
2018-07-31T07:35:47.272Z,26.60
2018-07-31T07:40:43.899Z,26.30
2018-07-31T07:43:12.354Z,26.30
2018-07-31T07:48:09.013Z,26.90
2018-07-31T07:53:07.002Z,27.40
2018-07-31T07:55:35.705Z,28.00
2018-07-31T07:58:04.270Z,28.30
2018-07-31T08:03:01.016Z,29.10
2018-07-31T08:05:30.419Z,29.30
2018-07-31T08:10:27.592Z,29.80
2018-07-31T08:12:56.506Z,29.90
2018-07-31T08:15:24.983Z,30.20
2018-07-31T08:20:28.706Z,30.40
2018-07-31T08:22:57.221Z,30.90
2018-07-31T08:25:25.788Z,29.80
2018-07-31T08:27:54.504Z,30.10
2018-07-31T08:30:22.973Z,29.80
2018-07-31T08:35:19.680Z,30.50
2018-07-31T08:37:48.134Z,30.60
2018-07-31T08:40:16.651Z,31.20
2018-07-31T08:45:13.931Z,31.30
2018-07-31T08:47:42.695Z,31.60
2018-07-31T08:50:11.158Z,32.10
2018-07-31T08:52:40.477Z,31.80
2018-07-31T08:57:37.301Z,32.50
2018-07-31T09:00:07.131Z,32.80
2018-07-31T09:05:03.865Z,33.20
2018-07-31T09:07:32.329Z,33.20
2018-07-31T09:10:00.788Z,33.20
2018-07-31T09:14:57.543Z,34.00
2018-07-31T09:17:26.350Z,34.00
2018-07-31T09:19:54.796Z,33.80
2018-07-31T09:24:51.698Z,33.80
2018-07-31T09:27:20.145Z,34.50
2018-07-31T09:29:49.367Z,34.60
2018-07-31T09:32:22.110Z,34.70
2018-07-31T09:34:50.834Z,33.60
2018-07-31T09:37:19.279Z,34.30
2018-07-31T09:39:47.745Z,34.20
2018-07-31T09:47:12.880Z,35.40
2018-07-31T09:49:51.358Z,34.60
2018-07-31T09:52:19.865Z,35.00
2018-07-31T09:54:48.515Z,35.60
2018-07-31T09:57:17.206Z,35.80
2018-07-31T09:59:45.732Z,34.50
2018-07-31T10:02:14.148Z,34.50
2018-07-31T10:07:11.236Z,34.10
2018-07-31T10:09:39.878Z,34.60
2018-07-31T10:12:08.429Z,34.70
2018-07-31T10:14:36.894Z,35.00
2018-07-31T10:17:05.328Z,35.70
2018-07-31T10:19:33.785Z,36.30
2018-07-31T10:22:02.303Z,36.80
2018-07-31T10:24:30.811Z,37.10
2018-07-31T10:26:59.436Z,37.20
2018-07-31T10:29:27.889Z,37.20
2018-07-31T10:34:24.448Z,36.60
2018-07-31T10:36:53.026Z,36.80
2018-07-31T10:39:21.505Z,36.60
2018-07-31T10:41:50.067Z,37.20
2018-07-31T10:44:18.619Z,37.50
2018-07-31T10:46:47.155Z,36.30
2018-07-31T10:49:15.668Z,36.20
2018-07-31T10:51:44.134Z,36.10
2018-07-31T10:56:40.795Z,37.00
2018-07-31T11:01:37.622Z,36.70
2018-07-31T11:04:07.166Z,36.90
2018-07-31T11:06:40.192Z,37.60
2018-07-31T11:09:10.166Z,37.90
2018-07-31T11:11:38.647Z,37.60
2018-07-31T11:16:35.794Z,38.30
2018-07-31T11:19:04.232Z,37.90
2018-07-31T11:21:32.900Z,37.70
2018-07-31T11:28:57.953Z,38.30
2018-07-31T11:31:26.396Z,38.30
2018-07-31T11:33:54.843Z,37.40
2018-07-31T11:36:23.345Z,37.20
2018-07-31T11:38:52.749Z,37.70
2018-07-31T11:41:21.307Z,36.80
2018-07-31T11:46:18.613Z,37.40
2018-07-31T11:48:47.121Z,37.20
2018-07-31T11:51:15.739Z,37.40
2018-07-31T11:53:44.184Z,37.60
2018-07-31T11:56:12.786Z,37.70
2018-07-31T11:58:41.280Z,38.00
2018-07-31T12:06:06.719Z,37.80
2018-07-31T12:11:04.120Z,38.00
2018-07-31T12:13:33.250Z,38.00
2018-07-31T12:18:30.097Z,36.90
2018-07-31T12:20:58.645Z,37.40
2018-07-31T12:23:27.170Z,37.40
2018-07-31T12:25:55.765Z,37.60
2018-07-31T12:40:46.596Z,37.00
2018-07-31T12:43:15.091Z,36.30
2018-07-31T12:45:43.543Z,35.50
2018-07-31T12:48:13.467Z,35.20
2018-07-31T12:50:42.048Z,34.50
2018-07-31T12:53:10.629Z,34.20
2018-07-31T12:58:07.383Z,33.90
2018-07-31T13:00:36.787Z,33.90
2018-07-31T13:03:05.627Z,34.00
2018-07-31T13:05:34.178Z,33.90
2018-07-31T13:10:32.752Z,33.50
2018-07-31T13:13:01.345Z,33.40
2018-07-31T13:15:29.970Z,33.50
2018-07-31T13:20:26.838Z,33.20
2018-07-31T13:22:55.672Z,33.20
2018-07-31T13:25:24.185Z,33.50
2018-07-31T13:27:52.923Z,33.60
2018-07-31T13:30:21.389Z,33.30
2018-07-31T13:32:50.107Z,33.40
2018-07-31T13:35:18.641Z,33.40
2018-07-31T13:37:47.103Z,33.40
2018-07-31T13:40:15.665Z,33.30
2018-07-31T13:42:44.263Z,33.30
2018-07-31T13:45:12.803Z,33.30
2018-07-31T13:50:10.781Z,33.20
2018-07-31T13:52:39.515Z,33.00
2018-07-31T13:55:08.212Z,33.00
2018-07-31T13:57:36.854Z,33.20
2018-07-31T14:02:33.549Z,33.30
2018-07-31T14:07:30.615Z,33.40
2018-07-31T14:10:01.346Z,33.40
2018-07-31T14:12:30.088Z,33.30
2018-07-31T14:19:55.134Z,33.30
2018-07-31T14:22:28.470Z,33.20
2018-07-31T14:29:57.343Z,33.20
2018-07-31T14:34:54.080Z,33.00
2018-07-31T14:37:31.087Z,33.00
2018-07-31T14:42:28.122Z,33.10
2018-07-31T14:47:29.689Z,33.00
2018-07-31T14:49:58.319Z,33.10
2018-07-31T14:52:26.886Z,33.20
2018-07-31T14:59:51.843Z,32.90
2018-07-31T15:02:20.337Z,33.00
2018-07-31T15:07:17.021Z,33.10
2018-07-31T15:09:45.754Z,32.90
2018-07-31T15:12:14.272Z,32.90
2018-07-31T15:14:42.828Z,32.80
2018-07-31T15:17:12.245Z,33.10
2018-07-31T15:27:05.636Z,32.90
2018-07-31T15:29:34.114Z,33.00
2018-07-31T15:32:02.581Z,32.90
2018-07-31T15:34:31.019Z,33.10
2018-07-31T15:36:59.576Z,32.90
2018-07-31T15:39:28.183Z,32.90
2018-07-31T15:41:56.708Z,32.90
2018-07-31T15:44:25.387Z,32.90
2018-07-31T15:46:53.951Z,32.90
2018-07-31T15:51:51.062Z,32.80
2018-07-31T15:54:19.593Z,32.80
2018-07-31T15:56:48.112Z,32.70
2018-07-31T15:59:16.591Z,32.70
2018-07-31T16:01:45.081Z,32.70
2018-07-31T16:04:13.627Z,32.70
2018-07-31T16:06:42.143Z,32.50
2018-07-31T16:09:11.897Z,33.00
2018-07-31T16:11:40.421Z,32.80
2018-07-31T16:14:09.145Z,32.70
2018-07-31T16:16:37.908Z,32.60
2018-07-31T16:19:06.527Z,32.60
2018-07-31T16:21:34.996Z,32.60
2018-07-31T16:24:03.461Z,32.70
2018-07-31T16:26:31.915Z,32.60
2018-07-31T16:29:00.473Z,32.50
2018-07-31T16:31:28.985Z,32.40
2018-07-31T16:33:57.624Z,32.40
2018-07-31T16:38:54.269Z,32.30
2018-07-31T16:41:22.803Z,32.40
2018-07-31T16:43:51.319Z,32.30
2018-07-31T16:46:19.844Z,32.30
2018-07-31T16:48:48.523Z,32.20
2018-07-31T16:56:13.564Z,31.90
2018-07-31T16:58:42.231Z,31.90
2018-07-31T17:01:10.694Z,31.90
2018-07-31T17:03:39.195Z,31.70
2018-07-31T17:06:07.977Z,31.60
2018-07-31T17:08:36.482Z,31.60
2018-07-31T17:11:05.042Z,31.60
2018-07-31T17:13:33.553Z,31.60
2018-07-31T17:18:30.274Z,31.40
2018-07-31T17:20:58.932Z,31.30
2018-07-31T17:25:55.929Z,31.50
2018-07-31T17:28:24.427Z,31.20
2018-07-31T17:30:52.868Z,31.20
2018-07-31T17:35:49.698Z,30.90
2018-07-31T17:38:19.195Z,31.00
2018-07-31T17:40:47.682Z,31.00
2018-07-31T17:43:16.231Z,30.80
2018-07-31T17:45:44.730Z,30.70
2018-07-31T17:48:13.220Z,31.00
2018-07-31T17:53:09.945Z,30.60
2018-07-31T17:58:07.153Z,30.30
2018-07-31T18:00:35.791Z,30.30
2018-07-31T18:03:04.448Z,30.10
2018-07-31T18:05:32.908Z,30.10
2018-07-31T18:15:27.658Z,30.00
2018-07-31T18:17:56.196Z,29.60
2018-07-31T18:20:24.787Z,29.60
2018-07-31T18:22:53.584Z,29.40
2018-07-31T18:25:22.879Z,29.50
2018-07-31T18:32:49.469Z,28.70
2018-07-31T18:40:14.381Z,28.50
2018-07-31T18:42:43.008Z,28.70
2018-07-31T18:47:39.931Z,28.50
2018-07-31T18:52:37.636Z,27.80
2018-07-31T18:55:06.299Z,28.20
2018-07-31T18:57:34.843Z,27.90
2018-07-31T19:05:01.774Z,27.20
2018-07-31T19:07:30.325Z,27.30
2018-07-31T19:12:28.079Z,26.80
2018-07-31T19:14:57.554Z,26.70
2018-07-31T19:17:27.453Z,26.80
2018-07-31T19:19:57.378Z,26.40
2018-07-31T19:22:25.915Z,26.40
2018-07-31T19:24:54.869Z,26.60
2018-07-31T19:27:23.797Z,26.30
2018-07-31T19:29:52.983Z,26.10
2018-07-31T19:32:23.409Z,26.10
2018-07-31T19:42:17.952Z,26.10
2018-07-31T19:44:46.589Z,25.80
2018-07-31T19:47:15.861Z,25.80
2018-07-31T19:49:44.476Z,25.80
2018-07-31T19:54:42.212Z,25.30
2018-07-31T19:59:41.012Z,25.50
2018-07-31T20:02:09.835Z,25.00
2018-07-31T20:07:07.217Z,25.20
2018-07-31T20:09:36.662Z,24.80
2018-07-31T20:12:05.373Z,25.20
2018-07-31T20:14:34.662Z,25.30
2018-07-31T20:17:03.279Z,25.10
2018-07-31T20:19:31.892Z,24.80
2018-07-31T20:22:00.677Z,24.70
2018-07-31T20:24:33.435Z,24.90
2018-07-31T20:29:30.484Z,24.30
2018-07-31T20:31:59.117Z,24.60
2018-07-31T20:34:28.346Z,24.50
2018-07-31T20:36:56.986Z,24.30
2018-07-31T20:39:25.723Z,24.10
2018-07-31T20:41:54.605Z,23.60
2018-07-31T20:44:23.198Z,23.70
2018-07-31T20:49:21.066Z,23.30
2018-07-31T20:51:50.634Z,24.10
2018-07-31T20:56:47.727Z,23.60
2018-07-31T20:59:16.441Z,23.70
2018-07-31T21:09:11.513Z,23.70
2018-07-31T21:11:40.352Z,23.60
2018-07-31T21:14:09.503Z,23.60
2018-07-31T21:16:38.425Z,23.50
2018-07-31T21:19:07.045Z,23.40
2018-07-31T21:21:35.560Z,23.30
2018-07-31T21:24:04.272Z,23.30
2018-07-31T21:29:01.075Z,23.20
2018-07-31T21:31:29.650Z,23.10
2018-07-31T21:33:58.180Z,23.30
2018-07-31T21:36:26.750Z,23.00
2018-07-31T21:38:55.364Z,22.90
2018-07-31T21:43:52.638Z,22.60
2018-07-31T21:46:21.304Z,22.60
2018-07-31T21:48:49.874Z,23.10
2018-07-31T21:51:18.831Z,23.00
2018-07-31T21:53:47.429Z,22.70
2018-07-31T21:56:16.777Z,22.80
2018-07-31T22:01:13.465Z,22.90
2018-07-31T22:03:42.052Z,22.90
2018-07-31T22:06:10.626Z,23.30
2018-07-31T22:08:39.720Z,23.10
2018-07-31T22:11:08.203Z,23.20
2018-07-31T22:13:36.681Z,23.10
2018-07-31T22:16:05.523Z,23.30
2018-07-31T22:18:34.088Z,23.10
2018-07-31T22:21:02.659Z,23.10
2018-07-31T22:23:31.361Z,23.20
2018-07-31T22:25:59.825Z,23.20
2018-07-31T22:28:28.393Z,23.20
2018-07-31T22:30:56.962Z,23.10
2018-07-31T22:33:25.696Z,23.00
2018-07-31T22:35:54.279Z,22.90
2018-07-31T22:38:22.938Z,22.70
2018-07-31T22:40:51.642Z,23.00
2018-07-31T22:43:20.253Z,23.00
2018-07-31T22:45:48.879Z,22.80
2018-07-31T22:48:17.613Z,22.60
2018-07-31T22:50:46.179Z,22.90
2018-07-31T22:53:14.713Z,22.90
2018-07-31T22:55:43.553Z,22.80
2018-07-31T22:58:12.138Z,23.00
2018-07-31T23:00:40.935Z,22.80
2018-07-31T23:03:09.391Z,22.80
2018-07-31T23:05:37.907Z,22.30
2018-07-31T23:08:06.658Z,22.60
2018-07-31T23:10:35.241Z,22.50
2018-07-31T23:13:03.760Z,22.30
2018-07-31T23:15:32.251Z,22.30
2018-07-31T23:18:00.726Z,22.30
2018-07-31T23:20:29.283Z,22.30
2018-07-31T23:22:57.803Z,22.20
2018-07-31T23:25:26.485Z,22.20
2018-07-31T23:27:55.091Z,22.20
2018-07-31T23:30:23.607Z,22.20
2018-07-31T23:32:52.079Z,22.20
2018-07-31T23:35:20.855Z,22.10
2018-07-31T23:37:49.414Z,22.10
2018-07-31T23:40:17.912Z,22.20
2018-07-31T23:42:46.517Z,22.30
2018-07-31T23:45:22.501Z,21.80
2018-07-31T23:47:51.659Z,22.00
2018-07-31T23:50:20.148Z,22.00
2018-07-31T23:52:48.643Z,22.00
2018-07-31T23:55:17.292Z,22.10
